CheckWX is a tool to help pilots better visualize weather data.  It is not intended as a substitute for an official pre-flight weather briefing.

13:30:58 UTC

KBWG TAF
Bowling Green-Warren County Regional Airport
Bowling Green, Kentucky, USA
KBWG 171121Z 1712/1812 00000KT 4SM BR FEW250 FM171330 00000KT P6SM FEW250 FM171800 21003KT P6SM SCT180 FM180800 22003KT P6SM BKN100

Nov-17@
12:00 UTC

Nov-17 @ 12:00 UTC

Nov-17@
13:30 UTC

Nov-17 @ 13:30 UTC

KBWG 171121Z 1712/1812 00000KT 4SM BR FEW250

Expired

Conditions
Mist
Cloud Levels
  • Few at 25,000' AGL

Nov-17@
13:30 UTC

Nov-17 @ 13:30 UTC

Nov-17@
18:00 UTC

Nov-17 @ 18:00 UTC

FM171330 00000KT P6SM FEW250

From

From Standard forecast or significant change

Cloud Levels
  • Few at 25,000' AGL

Nov-17@
18:00 UTC

Nov-17 @ 18:00 UTC

Nov-18@
08:00 UTC

Nov-18 @ 08:00 UTC

FM171800 21003KT P6SM SCT180

From

From Standard forecast or significant change

Wind
  • 210° at 3 KTS
Cloud Levels
  • Scattered at 18,000' AGL

Nov-18@
08:00 UTC

Nov-18 @ 08:00 UTC

Nov-18@
12:00 UTC

Nov-18 @ 12:00 UTC

FM180800 22003KT P6SM BKN100

From

From Standard forecast or significant change

Wind
  • 220° at 3 KTS
Cloud Levels
  • Broken at 10,000' AGL